createdAt,value
2022-09-07T00:00:57.778Z,100503.75
2022-09-07T00:01:37.597Z,100495.66
2022-09-07T00:02:24.594Z,100494.06
2022-09-07T00:03:18.728Z,100498.41
2022-09-07T00:04:12.603Z,100498.13
2022-09-07T00:05:06.558Z,100480.84
2022-09-07T00:06:02.560Z,100497.66
2022-09-07T00:06:56.544Z,100484.38
2022-09-07T00:07:43.580Z,100501.78
2022-09-07T00:08:17.633Z,100494.63
2022-09-07T00:09:04.551Z,100487.09
2022-09-07T00:09:38.750Z,100496.91
2022-09-07T00:10:25.568Z,100502.34
2022-09-07T00:11:11.648Z,100487.19
2022-09-07T00:11:58.539Z,100478.94
2022-09-07T00:12:32.620Z,100485.31
2022-09-07T00:13:14.598Z,100496.72
2022-09-07T00:13:55.636Z,100498.84
2022-09-07T00:14:35.584Z,100496.13
2022-09-07T00:15:16.694Z,100502.28
2022-09-07T00:15:57.623Z,100506.88
2022-09-07T00:16:38.752Z,100498.84
2022-09-07T00:17:18.553Z,100492.03
2022-09-07T00:17:58.615Z,100500.56
2022-09-07T00:18:43.680Z,100512.53
2022-09-07T00:19:26.600Z,100488.28
2022-09-07T00:20:07.539Z,100499.41
2022-09-07T00:20:47.600Z,100497.94
2022-09-07T00:21:28.576Z,100483.94
2022-09-07T00:22:08.636Z,100495.78
2022-09-07T00:22:48.542Z,100488.75
2022-09-07T00:23:28.791Z,100480.19
2022-09-07T00:24:09.591Z,100497.63
2022-09-07T00:24:49.634Z,100491.88
2022-09-07T00:25:31.947Z,100494.03
2022-09-07T00:26:20.691Z,100490.78
2022-09-07T00:27:03.552Z,100501.66
2022-09-07T00:27:43.820Z,100501.34
2022-09-07T00:28:24.635Z,100489.59
2022-09-07T00:29:07.978Z,100506.53
2022-09-07T00:29:48.641Z,100507.41
2022-09-07T00:30:28.666Z,100500.25
2022-09-07T00:31:09.580Z,100505.41
2022-09-07T00:31:49.673Z,100501.97
2022-09-07T00:32:29.534Z,100502.97
2022-09-07T00:33:09.589Z,100505.94
2022-09-07T00:33:50.515Z,100495.91
2022-09-07T00:34:30.639Z,100500.81
2022-09-07T00:35:11.570Z,100488.28
2022-09-07T00:35:51.874Z,100500.25
2022-09-07T00:36:32.575Z,100500.94
2022-09-07T00:37:12.650Z,100498.38
2022-09-07T00:37:52.528Z,100494.81
2022-09-07T00:38:32.651Z,100489.69
2022-09-07T00:39:13.537Z,100499.25
2022-09-07T00:39:53.639Z,100490.16
2022-09-07T00:40:34.536Z,100488.69
2022-09-07T00:41:15.758Z,100488.69
2022-09-07T00:41:55.537Z,100499.09
2022-09-07T00:42:35.786Z,100493.81
2022-09-07T00:43:23.540Z,100491.84
2022-09-07T00:44:25.608Z,100495.75
2022-09-07T00:45:14.522Z,100493.31
2022-09-07T00:45:54.553Z,100484.47
2022-09-07T00:46:36.491Z,100492.31
2022-09-07T00:47:50.532Z,100503.03
2022-09-07T00:48:25.585Z,100492.53
2022-09-07T00:49:30.517Z,100498.53
2022-09-07T00:50:10.621Z,100496.53
2022-09-07T00:51:02.542Z,100481.25
2022-09-07T00:51:43.644Z,100487.09
2022-09-07T00:52:31.530Z,100490.19
2022-09-07T00:53:29.650Z,100491.66
2022-09-07T00:54:23.527Z,100496.94
2022-09-07T00:55:06.739Z,100492.00
2022-09-07T00:55:55.509Z,100480.47
2022-09-07T00:56:40.546Z,100497.31
2022-09-07T00:57:37.513Z,100483.38
2022-09-07T00:58:34.501Z,100504.63
2022-09-07T00:59:31.516Z,100511.06
2022-09-07T01:00:25.518Z,100508.34
2022-09-07T01:01:20.657Z,100494.19
2022-09-07T01:02:01.611Z,100495.59
2022-09-07T01:02:41.818Z,100504.03
2022-09-07T01:03:42.513Z,100485.13
2022-09-07T01:04:23.622Z,100492.84
2022-09-07T01:05:13.505Z,100497.84
2022-09-07T01:06:26.563Z,100501.69
2022-09-07T01:07:07.546Z,100497.16
2022-09-07T01:07:47.572Z,100481.06
2022-09-07T01:08:28.530Z,100492.34
2022-09-07T01:09:28.579Z,100485.31
2022-09-07T01:10:09.493Z,100480.34
2022-09-07T01:10:49.592Z,100504.34
2022-09-07T01:11:30.496Z,100496.63
2022-09-07T01:12:17.542Z,100502.63
2022-09-07T01:13:14.513Z,100493.22
2022-09-07T01:14:08.492Z,100490.22
2022-09-07T01:15:05.505Z,100498.06
2022-09-07T01:16:17.560Z,100508.63
2022-09-07T01:17:47.509Z,100483.78
2022-09-07T01:19:13.497Z,100503.34
2022-09-07T01:20:40.506Z,100491.75
2022-09-07T01:21:45.525Z,100499.91
2022-09-07T01:22:48.526Z,100505.78
2022-09-07T01:24:11.507Z,100493.47
2022-09-07T01:25:36.488Z,100500.34
2022-09-07T01:27:30.505Z,100488.91
2022-09-07T01:28:28.592Z,100496.91
2022-09-07T01:29:52.585Z,100505.66
2022-09-07T01:30:34.507Z,100476.25
2022-09-07T01:31:54.566Z,100501.09
2022-09-07T01:33:11.492Z,100493.25
2022-09-07T01:34:14.576Z,100486.00
2022-09-07T01:34:50.621Z,100503.13
2022-09-07T01:35:49.485Z,100494.66
2022-09-07T01:36:40.566Z,100499.09
2022-09-07T01:37:57.210Z,100493.09
2022-09-07T01:38:54.595Z,100490.22
2022-09-07T01:39:58.556Z,100488.50
2022-09-07T01:41:05.629Z,100466.66
2022-09-07T01:42:05.460Z,100492.34
2022-09-07T01:42:55.573Z,100465.63
2022-09-07T01:44:03.463Z,100480.19
2022-09-07T01:45:09.545Z,100480.78
2022-09-07T01:46:04.526Z,100491.34
2022-09-07T01:47:19.486Z,100473.41
2022-09-07T01:48:19.472Z,100475.53
2022-09-07T01:49:51.470Z,100475.56
2022-09-07T01:50:52.512Z,100479.28
2022-09-07T01:51:38.521Z,100468.69
2022-09-07T01:52:48.483Z,100470.41
2022-09-07T01:53:48.587Z,100477.34
2022-09-07T01:54:37.470Z,100478.25
2022-09-07T01:55:29.537Z,100453.16
2022-09-07T01:56:25.498Z,100454.41
2022-09-07T01:57:15.563Z,100478.69
2022-09-07T01:58:17.454Z,100464.97
2022-09-07T01:59:12.544Z,100472.13
2022-09-07T02:00:06.456Z,100462.16
2022-09-07T02:00:53.791Z,100452.88
2022-09-07T02:01:53.547Z,100448.31
2022-09-07T02:02:46.565Z,100462.72
2022-09-07T02:03:39.445Z,100469.59
2022-09-07T02:04:34.528Z,100447.31
2022-09-07T02:05:41.462Z,100460.44
2022-09-07T02:06:46.564Z,100464.16
2022-09-07T02:07:51.477Z,100467.56
2022-09-07T02:08:40.522Z,100461.28
2022-09-07T02:09:39.455Z,100461.28
2022-09-07T02:10:25.556Z,100459.28
2022-09-07T02:11:15.449Z,100463.09
2022-09-07T02:11:55.529Z,100471.13
2022-09-07T02:13:17.482Z,100449.25
2022-09-07T02:14:14.652Z,100460.38
2022-09-07T02:14:59.445Z,100450.00
2022-09-07T02:16:20.551Z,100457.22
2022-09-07T02:17:15.430Z,100459.50
2022-09-07T02:18:00.592Z,100456.50
2022-09-07T02:18:48.496Z,100458.81
2022-09-07T02:19:31.508Z,100455.25
2022-09-07T02:20:28.464Z,100451.25
2022-09-07T02:21:09.508Z,100455.53
2022-09-07T02:21:56.433Z,100457.53
2022-09-07T02:22:40.544Z,100454.84
2022-09-07T02:23:29.445Z,100447.72
2022-09-07T02:24:33.447Z,100458.41
2022-09-07T02:25:10.521Z,100461.28
2022-09-07T02:26:06.426Z,100448.53
2022-09-07T02:26:42.565Z,100433.28
2022-09-07T02:27:52.445Z,100445.84
2022-09-07T02:28:32.780Z,100456.28
2022-09-07T02:29:19.431Z,100454.09
2022-09-07T02:30:00.461Z,100436.28
2022-09-07T02:30:54.454Z,100455.44
2022-09-07T02:31:48.443Z,100446.72
2022-09-07T02:32:42.465Z,100446.69
2022-09-07T02:33:36.427Z,100457.97
2022-09-07T02:34:30.462Z,100453.66
2022-09-07T02:35:17.529Z,100436.09
2022-09-07T02:35:52.536Z,100442.81
2022-09-07T02:36:46.405Z,100436.06
2022-09-07T02:37:21.484Z,100453.78
2022-09-07T02:38:11.434Z,100445.94
2022-09-07T02:38:45.500Z,100439.94
2022-09-07T02:39:32.468Z,100454.66
2022-09-07T02:40:06.988Z,100434.66
2022-09-07T02:40:47.487Z,100441.50
2022-09-07T02:41:44.524Z,100446.50
2022-09-07T02:42:24.419Z,100436.53
2022-09-07T02:43:10.497Z,100436.25
2022-09-07T02:43:50.466Z,100432.38
2022-09-07T02:44:35.524Z,100442.16
2022-09-07T02:45:18.437Z,100444.75
2022-09-07T02:46:56.463Z,100436.47
2022-09-07T02:48:17.410Z,100440.50
2022-09-07T02:49:39.420Z,100439.59
2022-09-07T02:51:17.425Z,100438.16
2022-09-07T02:52:32.457Z,100438.16
2022-09-07T02:53:42.431Z,100438.59
2022-09-07T02:55:23.420Z,100399.22
2022-09-07T02:56:41.411Z,100437.19
2022-09-07T02:58:33.461Z,100442.72
2022-09-07T03:00:10.440Z,100440.69
2022-09-07T03:01:42.551Z,100440.69
2022-09-07T03:02:49.509Z,100441.03
2022-09-07T03:04:15.464Z,100438.47
2022-09-07T03:05:30.408Z,100440.44
2022-09-07T03:06:40.448Z,100445.28
2022-09-07T03:07:56.402Z,100425.75
2022-09-07T03:09:02.385Z,100433.56
2022-09-07T03:09:46.471Z,100442.56
2022-09-07T03:10:26.482Z,100435.59
2022-09-07T03:11:07.404Z,100428.19
2022-09-07T03:11:47.455Z,100443.88
2022-09-07T03:12:28.416Z,100437.03
2022-09-07T03:13:08.501Z,100444.00
2022-09-07T03:13:48.389Z,100433.03
2022-09-07T03:14:33.720Z,100426.19
2022-09-07T03:15:15.438Z,100447.72
2022-09-07T03:15:56.357Z,100445.03
2022-09-07T03:16:36.389Z,100440.50
2022-09-07T03:17:17.597Z,100431.34
2022-09-07T03:17:58.409Z,100433.50
2022-09-07T03:18:39.477Z,100444.06
2022-09-07T03:19:19.399Z,100442.53
2022-09-07T03:19:59.470Z,100434.81
2022-09-07T03:20:39.405Z,100436.09
2022-09-07T03:21:19.458Z,100443.81
2022-09-07T03:22:00.368Z,100441.09
2022-09-07T03:22:40.481Z,100444.22
2022-09-07T03:23:21.396Z,100439.97
2022-09-07T03:24:01.465Z,100437.94
2022-09-07T03:24:43.421Z,100435.81
2022-09-07T03:25:24.459Z,100446.53
2022-09-07T03:26:04.424Z,100442.84
2022-09-07T03:26:50.507Z,100422.25
2022-09-07T03:27:30.378Z,100437.84
2022-09-07T03:28:10.482Z,100443.97
2022-09-07T03:28:50.405Z,100428.84
2022-09-07T03:29:30.513Z,100444.25
2022-09-07T03:30:13.390Z,100445.97
2022-09-07T03:30:53.480Z,100447.94
2022-09-07T03:31:33.404Z,100451.66
2022-09-07T03:32:13.434Z,100430.84
2022-09-07T03:32:54.381Z,100449.69
2022-09-07T03:33:34.486Z,100426.53
2022-09-07T03:34:15.373Z,100447.13
2022-09-07T03:34:55.471Z,100447.81
2022-09-07T03:35:35.378Z,100441.97
2022-09-07T03:36:15.482Z,100430.22
2022-09-07T03:36:55.481Z,100443.97
2022-09-07T03:37:36.464Z,100438.13
2022-09-07T03:38:16.373Z,100440.09
2022-09-07T03:38:56.500Z,100434.53
2022-09-07T03:39:37.405Z,100433.94
2022-09-07T03:40:20.436Z,100431.38
2022-09-07T03:41:12.372Z,100444.41
2022-09-07T03:41:52.659Z,100443.66
2022-09-07T03:42:33.391Z,100451.22
2022-09-07T03:43:13.472Z,100445.25
2022-09-07T03:43:55.384Z,100451.50
2022-09-07T03:44:35.492Z,100451.50
2022-09-07T03:45:17.408Z,100436.09
2022-09-07T03:45:57.502Z,100431.38
2022-09-07T03:46:38.371Z,100447.38
2022-09-07T03:47:18.482Z,100436.53
2022-09-07T03:48:03.772Z,100447.06
2022-09-07T03:48:45.572Z,100439.25
2022-09-07T03:49:25.370Z,100443.66
2022-09-07T03:50:05.460Z,100424.53
2022-09-07T03:50:45.372Z,100422.09
2022-09-07T03:51:25.436Z,100428.22
2022-09-07T03:52:06.370Z,100427.09
2022-09-07T03:52:46.413Z,100440.81
2022-09-07T03:53:27.446Z,100440.06
2022-09-07T03:54:07.482Z,100416.53
2022-09-07T03:54:47.345Z,100436.25
2022-09-07T03:55:27.439Z,100430.81
2022-09-07T03:56:12.365Z,100445.50
2022-09-07T03:56:52.428Z,100435.22
2022-09-07T03:57:33.359Z,100445.34
2022-09-07T03:58:13.412Z,100429.78
2022-09-07T03:58:55.395Z,100445.66
2022-09-07T03:59:35.421Z,100439.91
2022-09-07T04:00:16.340Z,100449.34
2022-09-07T04:00:56.611Z,100443.81
2022-09-07T04:01:36.400Z,100445.94
2022-09-07T04:02:16.498Z,100446.81
2022-09-07T04:02:56.405Z,100445.41
2022-09-07T04:03:36.462Z,100445.53
2022-09-07T04:04:17.391Z,100445.41
2022-09-07T04:04:57.521Z,100434.09
2022-09-07T04:05:39.365Z,100443.78
2022-09-07T04:06:20.499Z,100428.09
2022-09-07T04:07:01.341Z,100441.69
2022-09-07T04:07:41.412Z,100439.09
2022-09-07T04:08:22.334Z,100435.94
2022-09-07T04:09:02.572Z,100435.22
2022-09-07T04:09:43.375Z,100448.97
2022-09-07T04:10:23.410Z,100443.66
2022-09-07T04:11:05.344Z,100443.09
2022-09-07T04:11:45.412Z,100441.38
2022-09-07T04:12:25.332Z,100436.53
2022-09-07T04:13:05.422Z,100444.25
2022-09-07T04:13:46.349Z,100442.50
2022-09-07T04:14:26.428Z,100426.09
2022-09-07T04:15:07.361Z,100445.66
2022-09-07T04:15:50.945Z,100427.66
2022-09-07T04:16:34.381Z,100449.66
2022-09-07T04:17:14.512Z,100440.50
2022-09-07T04:17:55.334Z,100446.50
2022-09-07T04:18:35.415Z,100441.66
2022-09-07T04:19:15.329Z,100433.81
2022-09-07T04:19:56.048Z,100429.09
2022-09-07T04:20:38.357Z,100439.91
2022-09-07T04:21:19.412Z,100436.09
2022-09-07T04:22:00.349Z,100441.09
2022-09-07T04:22:40.419Z,100436.94
2022-09-07T04:23:21.329Z,100438.81
2022-09-07T04:24:02.421Z,100429.09
2022-09-07T04:24:42.323Z,100438.81
2022-09-07T04:25:23.409Z,100432.78
2022-09-07T04:26:04.356Z,100438.81
2022-09-07T04:26:44.441Z,100427.25
2022-09-07T04:27:25.325Z,100438.22
2022-09-07T04:28:05.368Z,100419.13
2022-09-07T04:28:45.398Z,100436.53
2022-09-07T04:29:25.452Z,100431.66
2022-09-07T04:30:05.320Z,100433.25
2022-09-07T04:30:45.446Z,100421.25
2022-09-07T04:31:26.413Z,100422.22
2022-09-07T04:32:06.386Z,100428.25
2022-09-07T04:32:46.314Z,100418.56
2022-09-07T04:33:26.401Z,100432.25
2022-09-07T04:34:07.307Z,100430.53
2022-09-07T04:34:47.409Z,100431.53
2022-09-07T04:35:27.317Z,100424.69
2022-09-07T04:36:08.419Z,100426.81
2022-09-07T04:36:49.358Z,100440.94
2022-09-07T04:37:29.508Z,100432.97
2022-09-07T04:38:10.309Z,100417.38
2022-09-07T04:38:51.416Z,100432.50
2022-09-07T04:39:32.328Z,100422.53
2022-09-07T04:40:12.436Z,100436.66
2022-09-07T04:40:52.305Z,100439.09
2022-09-07T04:41:33.492Z,100436.38
2022-09-07T04:42:14.441Z,100434.25
2022-09-07T04:42:54.374Z,100429.78
2022-09-07T04:43:36.311Z,100444.78
2022-09-07T04:44:17.386Z,100436.81
2022-09-07T04:44:57.310Z,100441.53
2022-09-07T04:45:38.422Z,100432.81
2022-09-07T04:46:29.348Z,100432.81
2022-09-07T04:47:09.409Z,100415.41
2022-09-07T04:47:55.329Z,100434.25
2022-09-07T04:48:35.426Z,100415.25
2022-09-07T04:49:17.311Z,100414.53
2022-09-07T04:50:00.404Z,100419.97
2022-09-07T04:50:41.297Z,100426.81
2022-09-07T04:51:21.368Z,100410.81
2022-09-07T04:52:01.299Z,100408.69
2022-09-07T04:52:41.366Z,100414.66
2022-09-07T04:53:22.327Z,100417.66
2022-09-07T04:54:04.410Z,100418.81
2022-09-07T04:54:45.327Z,100419.38
2022-09-07T04:55:25.420Z,100406.41
2022-09-07T04:56:06.345Z,100421.66
2022-09-07T04:56:46.398Z,100422.38
2022-09-07T04:57:30.324Z,100426.38
2022-09-07T04:58:10.405Z,100408.53
2022-09-07T04:58:52.327Z,100422.81
2022-09-07T04:59:32.426Z,100415.97
2022-09-07T05:00:15.320Z,100427.38
2022-09-07T05:00:55.449Z,100423.38
2022-09-07T05:01:36.362Z,100412.84
2022-09-07T05:02:16.441Z,100422.53
2022-09-07T05:02:56.306Z,100406.84
2022-09-07T05:03:37.381Z,100429.94
2022-09-07T05:04:18.340Z,100426.81
2022-09-07T05:05:02.072Z,100412.81
2022-09-07T05:05:45.325Z,100416.56
2022-09-07T05:06:26.365Z,100411.41
2022-09-07T05:07:06.308Z,100401.13
2022-09-07T05:07:46.392Z,100422.84
2022-09-07T05:08:26.398Z,100425.53
2022-09-07T05:09:07.389Z,100414.53
2022-09-07T05:09:48.345Z,100420.25
2022-09-07T05:10:28.388Z,100413.25
2022-09-07T05:11:08.303Z,100414.44
2022-09-07T05:11:48.623Z,100417.13
2022-09-07T05:12:28.277Z,100411.69
2022-09-07T05:13:08.370Z,100413.41
2022-09-07T05:13:49.289Z,100420.84
2022-09-07T05:14:29.365Z,100414.16
2022-09-07T05:15:11.356Z,100419.84
2022-09-07T05:15:51.345Z,100424.84
2022-09-07T05:16:32.413Z,100392.28
2022-09-07T05:17:14.460Z,100424.28
2022-09-07T05:17:56.289Z,100418.13
2022-09-07T05:18:51.298Z,100436.72
2022-09-07T05:19:45.277Z,100428.25
2022-09-07T05:20:32.312Z,100429.69
2022-09-07T05:21:19.436Z,100421.97
2022-09-07T05:22:14.285Z,100419.13
2022-09-07T05:22:48.344Z,100420.81
2022-09-07T05:23:35.300Z,100431.81
2022-09-07T05:24:09.402Z,100429.66
2022-09-07T05:24:56.293Z,100415.41
2022-09-07T05:25:33.609Z,100413.13
2022-09-07T05:26:15.420Z,100422.09
2022-09-07T05:26:55.360Z,100419.38
2022-09-07T05:27:35.320Z,100427.94
2022-09-07T05:28:19.392Z,100427.69
2022-09-07T05:31:41.296Z,100416.81
2022-09-07T05:32:15.412Z,100425.34
2022-09-07T05:33:03.264Z,100420.81
2022-09-07T05:34:44.285Z,100416.50
2022-09-07T05:35:21.437Z,100403.94
2022-09-07T05:36:13.260Z,100407.25
2022-09-07T05:36:54.300Z,100409.22
2022-09-07T05:37:48.283Z,100398.53
2022-09-07T05:38:43.268Z,100396.78
2022-09-07T05:39:37.328Z,100416.75
2022-09-07T05:40:31.265Z,100410.75
2022-09-07T05:41:34.288Z,100412.19
2022-09-07T05:42:15.394Z,100402.94
2022-09-07T05:42:55.345Z,100416.50
2022-09-07T05:44:45.606Z,100403.47
2022-09-07T05:45:26.582Z,100422.00
2022-09-07T05:46:07.424Z,100405.59
2022-09-07T05:46:48.277Z,100412.19
2022-09-07T05:47:35.281Z,100412.19
2022-09-07T05:48:29.385Z,100417.19
2022-09-07T05:49:23.309Z,100416.75
2022-09-07T05:50:20.276Z,100421.56
2022-09-07T05:51:21.262Z,100411.31
2022-09-07T05:52:15.278Z,100416.44
2022-09-07T05:52:56.279Z,100410.31
2022-09-07T05:53:36.367Z,100411.44
2022-09-07T05:54:18.265Z,100416.00
2022-09-07T05:55:07.720Z,100408.28
2022-09-07T05:55:54.272Z,100419.13
2022-09-07T05:56:34.342Z,100414.53
2022-09-07T05:57:19.258Z,100424.81
2022-09-07T05:58:06.321Z,100407.00
2022-09-07T05:59:03.246Z,100425.56
2022-09-07T05:59:57.265Z,100424.56
2022-09-07T06:00:51.279Z,100428.94
2022-09-07T06:01:45.283Z,100435.91
2022-09-07T06:02:39.969Z,100422.38
2022-09-07T06:03:27.361Z,100430.91
2022-09-07T06:04:01.306Z,100428.94
2022-09-07T06:04:49.253Z,100430.94
2022-09-07T06:05:23.316Z,100428.22
2022-09-07T06:06:23.263Z,100430.28
2022-09-07T06:08:04.242Z,100420.28
2022-09-07T06:08:46.287Z,100417.41
2022-09-07T06:10:54.247Z,100419.66
2022-09-07T06:11:48.238Z,100399.56
2022-09-07T06:12:44.464Z,100420.00
2022-09-07T06:13:42.273Z,100411.84
2022-09-07T06:14:23.322Z,100415.34
2022-09-07T06:15:04.865Z,100398.22
2022-09-07T06:15:45.237Z,100418.06
2022-09-07T06:16:26.429Z,100408.19
2022-09-07T06:17:07.219Z,100419.16
2022-09-07T06:17:47.289Z,100397.09
2022-09-07T06:18:27.245Z,100406.78
2022-09-07T06:19:12.311Z,100415.34
2022-09-07T06:19:52.261Z,100412.31
2022-09-07T06:20:32.304Z,100410.06
2022-09-07T06:21:25.224Z,100402.91
2022-09-07T06:22:21.261Z,100398.63
2022-09-07T06:23:15.220Z,100411.31
2022-09-07T06:24:09.254Z,100401.66
2022-09-07T06:25:03.254Z,100399.03
2022-09-07T06:26:03.230Z,100403.41
2022-09-07T06:26:57.263Z,100400.00
2022-09-07T06:27:51.261Z,100402.38
2022-09-07T06:28:57.928Z,100392.75
2022-09-07T06:29:52.214Z,100398.13
2022-09-07T06:30:33.245Z,100403.63
2022-09-07T06:31:23.636Z,100409.06
2022-09-07T06:33:17.072Z,100411.50
2022-09-07T06:34:04.216Z,100395.47
2022-09-07T06:34:44.314Z,100385.63
2022-09-07T06:35:25.217Z,100390.28
2022-09-07T06:36:08.249Z,100396.84
2022-09-07T06:36:42.298Z,100391.63
2022-09-07T06:37:29.213Z,100400.31
2022-09-07T06:38:03.298Z,100396.28
2022-09-07T06:38:51.225Z,100396.22
2022-09-07T06:39:25.473Z,100394.75
2022-09-07T06:40:14.289Z,100397.19
2022-09-07T06:40:48.784Z,100392.66
2022-09-07T06:42:35.360Z,100389.59
2022-09-07T06:43:16.213Z,100396.13
2022-09-07T06:43:56.337Z,100398.72
2022-09-07T06:44:38.198Z,100397.53
2022-09-07T06:45:21.303Z,100393.09
2022-09-07T06:47:40.320Z,100395.50
2022-09-07T06:48:28.336Z,100384.94
2022-09-07T06:49:02.333Z,100373.63
2022-09-07T06:49:49.194Z,100393.78
2022-09-07T06:50:23.296Z,100397.38
2022-09-07T06:51:16.196Z,100394.19
2022-09-07T06:51:50.309Z,100400.69
2022-09-07T06:53:41.664Z,100383.69
2022-09-07T06:55:28.304Z,100394.28
2022-09-07T06:56:12.235Z,100376.38
2022-09-07T06:56:52.306Z,100397.06
2022-09-07T06:57:33.377Z,100376.72
2022-09-07T06:58:13.322Z,100390.38
2022-09-07T06:58:54.218Z,100397.00
2022-09-07T06:59:34.347Z,100400.78
2022-09-07T07:00:16.211Z,100397.72
2022-09-07T07:00:56.592Z,100396.50
2022-09-07T07:01:39.245Z,100393.31
2022-09-07T07:02:19.562Z,100379.03
2022-09-07T07:03:00.350Z,100397.09
2022-09-07T07:03:40.403Z,100392.38
2022-09-07T07:04:21.177Z,100392.69
2022-09-07T07:05:01.263Z,100396.25
2022-09-07T07:05:41.195Z,100381.41
2022-09-07T07:06:23.376Z,100379.03
2022-09-07T07:07:04.212Z,100378.91
2022-09-07T07:07:57.245Z,100380.88
2022-09-07T07:09:45.334Z,100371.97
2022-09-07T07:10:25.336Z,100387.41
2022-09-07T07:11:11.290Z,100389.44
2022-09-07T07:11:54.204Z,100391.13
2022-09-07T07:14:04.217Z,100384.03
2022-09-07T07:14:58.188Z,100379.28
2022-09-07T07:15:52.195Z,100375.72
2022-09-07T07:16:46.197Z,100394.66
2022-09-07T07:17:40.201Z,100386.13
2022-09-07T07:18:34.401Z,100392.63
2022-09-07T07:19:21.219Z,100393.66
2022-09-07T07:19:55.276Z,100398.06
2022-09-07T07:20:44.196Z,100393.34
2022-09-07T07:21:21.230Z,100393.72
2022-09-07T07:23:03.172Z,100389.13
2022-09-07T07:23:37.313Z,100399.75
2022-09-07T07:24:10.930Z,100395.16
2022-09-07T07:24:52.233Z,100403.63
2022-09-07T07:25:26.357Z,100410.78
2022-09-07T07:26:26.815Z,100399.56
2022-09-07T07:27:07.181Z,100379.75
2022-09-07T07:27:42.295Z,100399.94
2022-09-07T07:29:18.712Z,100394.53
2022-09-07T07:30:00.206Z,100395.94
2022-09-07T07:30:33.904Z,100373.78
2022-09-07T07:31:21.201Z,100395.28
2022-09-07T07:31:54.932Z,100371.38
2022-09-07T07:32:42.167Z,100384.34
2022-09-07T07:33:15.996Z,100394.53
2022-09-07T07:34:04.170Z,100402.41
2022-09-07T07:34:37.888Z,100396.28
2022-09-07T07:35:26.238Z,100402.44
2022-09-07T07:36:22.703Z,100390.84
2022-09-07T07:37:10.114Z,100407.75
2022-09-07T07:37:43.850Z,100397.41
2022-09-07T07:40:34.181Z,100396.19
2022-09-07T07:42:19.105Z,100401.34
2022-09-07T07:43:01.388Z,100396.41
2022-09-07T07:44:04.550Z,100403.22
2022-09-07T07:44:45.272Z,100384.47
2022-09-07T07:46:29.232Z,100391.69
2022-09-07T07:47:09.185Z,100403.13
2022-09-07T07:47:50.084Z,100397.84
2022-09-07T07:48:31.097Z,100396.50
2022-09-07T07:49:11.150Z,100408.13
2022-09-07T07:50:30.591Z,100400.31
2022-09-07T07:50:52.129Z,100407.09
2022-09-07T07:54:08.109Z,100405.97
2022-09-07T07:55:42.428Z,100404.25
2022-09-07T07:56:17.105Z,100397.44
2022-09-07T07:57:04.310Z,100393.00
2022-09-07T07:57:39.209Z,100398.66
2022-09-07T07:58:27.129Z,100394.53
2022-09-07T07:59:01.605Z,100400.03
2022-09-07T07:59:49.084Z,100386.19
2022-09-07T08:00:37.417Z,100395.09
2022-09-07T08:01:30.133Z,100407.84
2022-09-07T08:02:11.219Z,100411.63
2022-09-07T08:03:05.103Z,100395.75
2022-09-07T08:04:00.134Z,100407.03
2022-09-07T08:04:54.115Z,100404.44
2022-09-07T08:05:51.132Z,100390.47
2022-09-07T08:06:45.090Z,100394.91
2022-09-07T08:07:32.145Z,100387.41
2022-09-07T08:08:06.195Z,100393.53
2022-09-07T08:08:54.097Z,100392.69
2022-09-07T08:09:28.155Z,100412.97
2022-09-07T08:10:18.110Z,100412.97
2022-09-07T08:10:52.286Z,100401.38
2022-09-07T08:11:41.118Z,100419.13
2022-09-07T08:12:17.224Z,100405.50
2022-09-07T08:12:58.129Z,100402.75
2022-09-07T08:13:56.081Z,100410.63
2022-09-07T08:14:50.099Z,100406.69
2022-09-07T08:15:44.096Z,100411.63
2022-09-07T08:16:38.128Z,100402.59
2022-09-07T08:17:32.122Z,100403.81
2022-09-07T08:18:21.165Z,100405.84
2022-09-07T08:18:55.217Z,100394.25
2022-09-07T08:19:42.093Z,100400.41
2022-09-07T08:20:16.205Z,100380.75
2022-09-07T08:21:12.094Z,100407.91
2022-09-07T08:21:46.187Z,100388.81
2022-09-07T08:22:34.940Z,100407.53
2022-09-07T08:23:09.529Z,100385.41
2022-09-07T08:23:50.140Z,100400.06
2022-09-07T08:24:30.212Z,100393.25
2022-09-07T08:25:11.146Z,100398.34
2022-09-07T08:26:00.412Z,100398.34
2022-09-07T08:26:41.151Z,100398.50
2022-09-07T08:27:25.686Z,100387.06
2022-09-07T08:28:08.065Z,100406.31
2022-09-07T08:28:49.315Z,100401.72
2022-09-07T08:29:33.533Z,100399.00
2022-09-07T08:30:17.149Z,100398.97
2022-09-07T08:30:58.101Z,100399.69
2022-09-07T08:31:38.191Z,100391.16
2022-09-07T08:32:18.082Z,100403.94
2022-09-07T08:32:58.189Z,100399.50
2022-09-07T08:33:38.094Z,100395.41
2022-09-07T08:34:18.181Z,100408.88
2022-09-07T08:34:58.117Z,100402.75
2022-09-07T08:35:38.131Z,100383.94
2022-09-07T08:36:25.076Z,100402.88
2022-09-07T08:37:05.352Z,100400.63
2022-09-07T08:37:45.066Z,100390.25
2022-09-07T08:38:25.249Z,100394.84
2022-09-07T08:39:06.073Z,100393.13
2022-09-07T08:39:46.288Z,100392.81
2022-09-07T08:40:27.091Z,100394.16
2022-09-07T08:41:08.137Z,100397.19
2022-09-07T08:42:10.066Z,100382.88
2022-09-07T08:43:44.830Z,100388.84
2022-09-07T08:45:07.054Z,100384.72
2022-09-07T08:45:52.090Z,100388.75
2022-09-07T08:46:47.207Z,100376.97
2022-09-07T08:47:44.054Z,100377.34
2022-09-07T08:48:22.110Z,100390.84
2022-09-07T08:49:12.087Z,100368.28
2022-09-07T08:50:25.197Z,100376.63
2022-09-07T08:51:31.090Z,100385.00
2022-09-07T08:52:12.168Z,100386.13
2022-09-07T08:53:08.054Z,100370.75
2022-09-07T08:53:50.169Z,100385.72
2022-09-07T08:54:37.035Z,100382.34
2022-09-07T08:55:34.169Z,100363.56
2022-09-07T08:56:37.642Z,100372.38
2022-09-07T08:57:23.204Z,100373.06
2022-09-07T08:58:54.053Z,100368.78
2022-09-07T08:59:56.141Z,100379.50
2022-09-07T09:00:38.056Z,100358.66
2022-09-07T09:01:37.029Z,100372.28
2022-09-07T09:02:30.039Z,100360.69
2022-09-07T09:04:33.835Z,100363.00
2022-09-07T09:05:16.563Z,100364.03
2022-09-07T09:06:38.200Z,100371.50
2022-09-07T09:07:13.661Z,100370.94
2022-09-07T09:08:20.085Z,100358.13
2022-09-07T09:09:37.669Z,100362.50
2022-09-07T09:10:56.064Z,100361.09
2022-09-07T09:12:15.123Z,100355.28
2022-09-07T09:13:25.137Z,100331.44
2022-09-07T09:14:46.111Z,100353.34
2022-09-07T09:15:51.102Z,100350.91
2022-09-07T09:16:45.189Z,100355.53
2022-09-07T09:18:03.047Z,100344.03
2022-09-07T09:19:43.071Z,100350.25
2022-09-07T09:20:29.113Z,100355.72
2022-09-07T09:21:22.018Z,100341.75
2022-09-07T09:21:56.125Z,100338.47
2022-09-07T09:22:43.074Z,100347.81
2022-09-07T09:23:23.120Z,100334.19
2022-09-07T09:24:23.063Z,100319.53
2022-09-07T09:25:26.093Z,100340.25
2022-09-07T09:26:42.095Z,100335.25
2022-09-07T09:27:36.025Z,100333.00
2022-09-07T09:28:34.325Z,100327.53